createdAt,value
2023-03-06T00:00:41.381Z,-4.40
2023-03-06T00:03:08.841Z,-4.40
2023-03-06T00:05:36.389Z,-4.30
2023-03-06T00:08:03.923Z,-4.30
2023-03-06T00:10:31.587Z,-4.30
2023-03-06T00:13:01.638Z,-4.20
2023-03-06T00:15:30.013Z,-4.30
2023-03-06T00:17:57.861Z,-4.30
2023-03-06T00:20:26.639Z,-4.20
2023-03-06T00:22:56.471Z,-4.30
2023-03-06T00:25:24.166Z,-4.20
2023-03-06T00:27:52.038Z,-4.20
2023-03-06T00:30:22.829Z,-4.10
2023-03-06T00:32:50.636Z,-4.10
2023-03-06T00:35:18.191Z,-4.20
2023-03-06T00:37:45.558Z,-4.10
2023-03-06T00:40:16.393Z,-4.10
2023-03-06T00:42:43.752Z,-4.00
2023-03-06T00:45:11.970Z,-4.00
2023-03-06T00:47:39.631Z,-4.00
2023-03-06T00:50:07.604Z,-4.00
2023-03-06T00:52:35.005Z,-4.00
2023-03-06T00:55:02.322Z,-4.00
2023-03-06T00:57:30.527Z,-4.00
2023-03-06T00:59:57.746Z,-4.00
2023-03-06T01:02:25.293Z,-4.10
2023-03-06T01:04:52.440Z,-4.00
2023-03-06T01:07:19.620Z,-4.20
2023-03-06T01:09:46.947Z,-4.20
2023-03-06T01:12:14.053Z,-4.20
2023-03-06T01:14:41.212Z,-4.10
2023-03-06T01:17:08.585Z,-4.10
2023-03-06T01:19:35.808Z,-4.10
2023-03-06T01:22:03.257Z,-4.20
2023-03-06T01:24:30.415Z,-4.20
2023-03-06T01:26:57.580Z,-4.20
2023-03-06T01:29:26.633Z,-4.30
2023-03-06T01:31:53.856Z,-4.30
2023-03-06T01:34:21.425Z,-4.40
2023-03-06T01:36:48.877Z,-4.30
2023-03-06T01:39:16.029Z,-4.40
2023-03-06T01:41:43.202Z,-4.40
2023-03-06T01:44:16.069Z,-4.40
2023-03-06T01:46:45.064Z,-4.50
2023-03-06T01:49:15.037Z,-4.50
2023-03-06T01:51:50.626Z,-4.40
2023-03-06T01:54:44.953Z,-4.50
2023-03-06T01:57:15.628Z,-4.50
2023-03-06T01:59:44.261Z,-4.70
2023-03-06T02:02:12.989Z,-4.70
2023-03-06T02:04:41.378Z,-4.60
2023-03-06T02:07:09.745Z,-4.60
2023-03-06T02:09:38.727Z,-4.60
2023-03-06T02:12:16.783Z,-4.70
2023-03-06T02:14:44.556Z,-4.70
2023-03-06T02:17:15.063Z,-4.70
2023-03-06T02:19:57.115Z,-4.60
2023-03-06T02:22:32.034Z,-4.60
2023-03-06T02:25:21.986Z,-4.60
2023-03-06T02:27:49.974Z,-4.60
2023-03-06T02:30:18.774Z,-4.70
2023-03-06T02:32:45.952Z,-4.70
2023-03-06T02:35:20.205Z,-4.90
2023-03-06T02:37:47.596Z,-5.00
2023-03-06T02:40:16.209Z,-4.90
2023-03-06T02:42:51.933Z,-5.10
2023-03-06T02:45:34.981Z,-5.00
2023-03-06T02:48:03.341Z,-5.10
2023-03-06T02:50:31.370Z,-5.00
2023-03-06T02:52:58.969Z,-5.00
2023-03-06T02:55:26.200Z,-5.00
2023-03-06T02:57:53.351Z,-5.00
2023-03-06T03:00:21.019Z,-5.00
2023-03-06T03:02:48.247Z,-5.00
2023-03-06T03:05:15.771Z,-5.00
2023-03-06T03:07:43.925Z,-5.00
2023-03-06T03:10:12.516Z,-5.00
2023-03-06T03:12:41.388Z,-5.00
2023-03-06T03:15:09.689Z,-4.90
2023-03-06T03:17:38.705Z,-4.90
2023-03-06T03:20:09.557Z,-4.90
2023-03-06T03:22:36.992Z,-4.90
2023-03-06T03:25:04.791Z,-4.80
2023-03-06T03:27:32.370Z,-4.80
2023-03-06T03:30:00.321Z,-4.80
2023-03-06T03:32:27.856Z,-4.70
2023-03-06T03:34:58.277Z,-4.70
2023-03-06T03:37:25.436Z,-4.80
2023-03-06T03:39:52.542Z,-4.70
2023-03-06T03:42:19.652Z,-4.60
2023-03-06T03:44:47.083Z,-4.70
2023-03-06T03:47:14.473Z,-4.80
2023-03-06T03:49:41.902Z,-4.90
2023-03-06T03:52:09.181Z,-5.00
2023-03-06T03:54:36.507Z,-4.90
2023-03-06T03:57:03.816Z,-4.90
2023-03-06T03:59:31.200Z,-5.00
2023-03-06T04:01:59.581Z,-5.00
2023-03-06T04:04:26.849Z,-5.00
2023-03-06T04:06:54.306Z,-5.00
2023-03-06T04:09:21.768Z,-5.10
2023-03-06T04:11:48.970Z,-5.10
2023-03-06T04:14:16.114Z,-5.20
2023-03-06T04:16:43.214Z,-5.20
2023-03-06T04:19:11.721Z,-5.20
2023-03-06T04:21:38.839Z,-5.20
2023-03-06T04:24:06.724Z,-5.20
2023-03-06T04:26:33.986Z,-5.30
2023-03-06T04:29:01.879Z,-5.30
2023-03-06T04:31:29.317Z,-5.40
2023-03-06T04:33:56.746Z,-5.30
2023-03-06T04:36:50.854Z,-5.20
2023-03-06T04:39:17.965Z,-5.30
2023-03-06T04:41:45.357Z,-5.30
2023-03-06T04:44:12.660Z,-5.20
2023-03-06T04:46:39.972Z,-5.20
2023-03-06T04:49:07.600Z,-5.30
2023-03-06T04:51:37.051Z,-5.30
2023-03-06T04:54:05.250Z,-5.30
2023-03-06T04:56:34.554Z,-5.30
2023-03-06T04:59:02.878Z,-5.20
2023-03-06T05:01:30.273Z,-5.20
2023-03-06T05:03:57.389Z,-5.30
2023-03-06T05:06:24.810Z,-5.30
2023-03-06T05:08:52.231Z,-5.40
2023-03-06T05:11:19.537Z,-5.40
2023-03-06T05:13:46.824Z,-5.40
2023-03-06T05:16:14.233Z,-5.50
2023-03-06T05:18:41.716Z,-5.50
2023-03-06T05:21:09.401Z,-5.50
2023-03-06T05:23:38.702Z,-5.40
2023-03-06T05:26:09.349Z,-5.30
2023-03-06T05:28:36.679Z,-5.30
2023-03-06T05:31:04.328Z,-5.20
2023-03-06T05:33:35.879Z,-5.10
2023-03-06T05:36:03.211Z,-4.90
2023-03-06T05:38:30.741Z,-4.90
2023-03-06T05:40:58.100Z,-4.90
2023-03-06T05:43:25.536Z,-4.80
2023-03-06T05:46:03.665Z,-4.80
2023-03-06T05:48:31.329Z,-4.80
2023-03-06T05:50:59.951Z,-4.80
2023-03-06T05:53:28.098Z,-4.70
2023-03-06T05:56:03.969Z,-4.70
2023-03-06T05:58:33.377Z,-4.60
2023-03-06T06:01:01.003Z,-4.60
2023-03-06T06:03:28.454Z,-4.60
2023-03-06T06:05:55.676Z,-4.50
2023-03-06T06:08:22.888Z,-4.30
2023-03-06T06:10:53.220Z,-4.30
2023-03-06T06:13:20.569Z,-4.10
2023-03-06T06:15:47.674Z,-4.20
2023-03-06T06:18:15.179Z,-4.10
2023-03-06T06:20:42.548Z,-3.90
2023-03-06T06:23:11.542Z,-3.70
2023-03-06T06:25:38.740Z,-3.60
2023-03-06T06:28:06.398Z,-3.60
2023-03-06T06:30:34.171Z,-3.70
2023-03-06T06:33:01.337Z,-3.60
2023-03-06T06:35:28.727Z,-3.40
2023-03-06T06:37:55.868Z,-3.20
2023-03-06T06:40:24.561Z,-3.00
2023-03-06T06:42:52.959Z,-3.10
2023-03-06T06:45:20.340Z,-3.00
2023-03-06T06:47:50.179Z,-3.00
2023-03-06T06:50:17.528Z,-2.90
2023-03-06T06:52:44.862Z,-2.80
2023-03-06T06:55:13.435Z,-2.70
2023-03-06T06:57:42.381Z,-2.70
2023-03-06T07:00:12.884Z,-2.90
2023-03-06T07:02:40.638Z,-2.90
2023-03-06T07:05:08.669Z,-2.70
2023-03-06T07:07:39.953Z,-2.70
2023-03-06T07:10:12.968Z,-2.70
2023-03-06T07:12:40.521Z,-2.70
2023-03-06T07:15:08.358Z,-2.50
2023-03-06T07:17:35.841Z,-2.40
2023-03-06T07:20:04.159Z,-2.40
2023-03-06T07:22:41.453Z,-2.50
2023-03-06T07:25:16.069Z,-2.60
2023-03-06T07:27:46.940Z,-2.50
2023-03-06T07:30:18.679Z,-2.20
2023-03-06T07:32:45.967Z,-2.10
2023-03-06T07:35:20.319Z,-2.00
2023-03-06T07:37:47.880Z,-1.80
2023-03-06T07:40:15.278Z,-1.70
2023-03-06T07:42:42.409Z,-1.70
2023-03-06T07:45:10.452Z,-1.80
2023-03-06T07:47:37.839Z,-1.60
2023-03-06T07:50:07.506Z,-1.20
2023-03-06T07:52:34.895Z,-0.90
2023-03-06T07:55:02.145Z,-0.70
2023-03-06T07:57:29.378Z,-0.90
2023-03-06T07:59:56.806Z,-0.80
2023-03-06T08:02:24.594Z,-0.90
2023-03-06T08:04:55.622Z,-1.00
2023-03-06T08:07:23.248Z,-1.00
2023-03-06T08:09:50.685Z,-0.80
2023-03-06T08:12:18.097Z,-0.50
2023-03-06T08:14:45.474Z,-0.10
2023-03-06T08:17:12.643Z,0.00
2023-03-06T08:19:39.727Z,-0.10
2023-03-06T08:22:07.655Z,-0.10
2023-03-06T08:24:35.381Z,0.20
2023-03-06T08:27:02.552Z,0.20
2023-03-06T08:29:31.564Z,-0.10
2023-03-06T08:31:59.485Z,-0.40
2023-03-06T08:34:26.899Z,-0.40
2023-03-06T08:36:54.149Z,-0.20
2023-03-06T08:39:21.479Z,0.00
2023-03-06T08:41:48.880Z,0.20
2023-03-06T08:44:16.097Z,-0.10
2023-03-06T08:46:43.414Z,0.00
2023-03-06T08:49:13.086Z,0.70
2023-03-06T08:51:40.578Z,1.10
2023-03-06T08:54:07.782Z,1.10
2023-03-06T08:56:35.594Z,1.20
2023-03-06T08:59:05.283Z,0.70
2023-03-06T09:01:36.212Z,0.40
2023-03-06T09:04:06.750Z,0.50
2023-03-06T09:06:37.272Z,0.40
2023-03-06T09:09:05.557Z,0.60
2023-03-06T09:11:33.302Z,0.70
2023-03-06T09:14:00.654Z,1.00
2023-03-06T09:16:28.238Z,1.30
2023-03-06T09:18:55.894Z,1.40
2023-03-06T09:21:25.583Z,1.30
2023-03-06T09:23:53.111Z,0.60
2023-03-06T09:26:20.921Z,1.10
2023-03-06T09:28:48.320Z,1.20
2023-03-06T09:31:18.660Z,0.90
2023-03-06T09:33:46.774Z,0.50
2023-03-06T09:36:20.414Z,0.60
2023-03-06T09:38:49.991Z,1.00
2023-03-06T09:41:26.553Z,1.10
2023-03-06T09:44:21.476Z,1.00
2023-03-06T09:46:57.440Z,0.50
2023-03-06T09:49:40.669Z,0.70
2023-03-06T09:52:23.268Z,1.00
2023-03-06T09:54:59.734Z,1.00
2023-03-06T09:57:28.397Z,0.30
2023-03-06T10:00:06.133Z,0.40
2023-03-06T10:02:38.525Z,0.30
2023-03-06T10:05:10.796Z,0.70
2023-03-06T10:07:51.337Z,0.90
2023-03-06T10:10:28.787Z,1.20
2023-03-06T10:13:10.258Z,1.40
2023-03-06T10:15:41.522Z,1.10
2023-03-06T10:18:11.921Z,1.60
2023-03-06T10:20:49.235Z,2.20
2023-03-06T10:23:50.655Z,2.60
2023-03-06T10:26:24.447Z,2.30
2023-03-06T10:29:12.638Z,2.70
2023-03-06T10:31:44.724Z,1.90
2023-03-06T10:34:17.972Z,2.00
2023-03-06T10:36:45.515Z,2.00
2023-03-06T10:39:19.933Z,1.90
2023-03-06T10:41:49.089Z,2.10
2023-03-06T10:44:16.230Z,1.80
2023-03-06T10:46:46.177Z,1.30
2023-03-06T10:49:35.681Z,1.20
2023-03-06T10:52:07.102Z,1.60
2023-03-06T10:54:37.949Z,1.80
2023-03-06T10:57:29.718Z,1.90
2023-03-06T11:00:22.961Z,1.70
2023-03-06T11:03:16.523Z,2.20
2023-03-06T11:06:01.367Z,1.80
2023-03-06T11:08:29.952Z,1.50
2023-03-06T11:11:03.061Z,1.60
2023-03-06T11:13:34.476Z,1.60
2023-03-06T11:16:25.523Z,1.80
2023-03-06T11:18:58.764Z,1.80
2023-03-06T11:21:31.718Z,1.90
2023-03-06T11:24:12.055Z,1.90
2023-03-06T11:26:46.576Z,2.00
2023-03-06T11:30:02.069Z,2.40
2023-03-06T11:32:44.152Z,2.60
2023-03-06T11:35:15.946Z,2.30
2023-03-06T11:38:30.956Z,2.00
2023-03-06T11:41:02.230Z,1.30
2023-03-06T11:43:59.327Z,1.40
2023-03-06T11:46:50.088Z,1.70
2023-03-06T11:49:32.276Z,2.10
2023-03-06T11:52:07.232Z,2.60
2023-03-06T11:54:34.380Z,2.70
2023-03-06T11:57:17.817Z,2.50
2023-03-06T12:00:17.301Z,3.20
2023-03-06T12:03:18.581Z,3.10
2023-03-06T12:06:06.085Z,2.10
2023-03-06T12:08:43.080Z,2.10
2023-03-06T12:16:32.014Z,1.10
2023-03-06T12:19:02.069Z,0.80
2023-03-06T12:21:42.776Z,1.00
2023-03-06T12:24:30.831Z,0.90
2023-03-06T12:27:06.820Z,1.30
2023-03-06T12:29:43.039Z,1.20
2023-03-06T12:32:32.556Z,1.30
2023-03-06T12:35:22.420Z,1.00
2023-03-06T12:38:03.551Z,1.10
2023-03-06T12:40:53.831Z,0.40
2023-03-06T12:43:40.142Z,0.50
2023-03-06T12:46:15.564Z,0.20
2023-03-06T12:48:47.242Z,0.20
2023-03-06T12:51:20.194Z,0.20
2023-03-06T12:53:48.981Z,0.40
2023-03-06T12:56:18.299Z,0.40
2023-03-06T12:58:51.849Z,-0.10
2023-03-06T13:01:42.410Z,0.00
2023-03-06T13:04:48.263Z,0.00
2023-03-06T13:07:23.057Z,-0.10
2023-03-06T13:10:16.433Z,0.00
2023-03-06T13:12:56.304Z,0.00
2023-03-06T13:15:29.498Z,-0.10
2023-03-06T13:17:57.731Z,-0.30
2023-03-06T13:20:27.610Z,-0.10
2023-03-06T13:22:55.222Z,0.00
2023-03-06T13:25:22.340Z,-0.10
2023-03-06T13:27:55.416Z,0.30
2023-03-06T13:30:42.996Z,-0.10
2023-03-06T13:33:38.984Z,0.00
2023-03-06T13:36:32.284Z,0.10
2023-03-06T13:39:09.848Z,0.30
2023-03-06T13:41:55.314Z,0.40
2023-03-06T13:44:25.241Z,0.30
2023-03-06T13:46:57.176Z,0.10
2023-03-06T13:49:25.525Z,0.00
2023-03-06T13:51:52.726Z,0.00
2023-03-06T13:54:47.882Z,-0.20
2023-03-06T13:57:48.885Z,-0.20
2023-03-06T14:00:44.962Z,-0.10
2023-03-06T14:03:37.033Z,-0.30
2023-03-06T14:06:35.996Z,-0.80
2023-03-06T14:09:28.095Z,-0.70
2023-03-06T14:12:05.153Z,-0.70
2023-03-06T14:14:39.179Z,-0.50
2023-03-06T14:17:06.510Z,-0.40
2023-03-06T14:19:38.850Z,-0.40
2023-03-06T14:22:12.767Z,-0.50
2023-03-06T14:24:51.733Z,-0.50
2023-03-06T14:27:19.388Z,-0.70
2023-03-06T14:29:50.023Z,-0.80
2023-03-06T14:32:21.574Z,-0.70
2023-03-06T14:34:49.079Z,-0.80
2023-03-06T14:37:22.861Z,-0.60
2023-03-06T14:39:50.250Z,-0.50
2023-03-06T14:42:26.235Z,-0.60
2023-03-06T14:45:05.955Z,-0.60
2023-03-06T14:47:36.401Z,-0.30
2023-03-06T14:50:30.111Z,-0.30
2023-03-06T14:53:06.033Z,-0.30
2023-03-06T14:55:35.693Z,-0.50
2023-03-06T14:58:10.790Z,-1.10
2023-03-06T15:00:43.603Z,-0.80
2023-03-06T15:03:19.590Z,-0.80
2023-03-06T15:05:48.089Z,-0.90
2023-03-06T15:08:22.115Z,-1.00
2023-03-06T15:10:58.512Z,-1.10
2023-03-06T15:13:28.310Z,-1.30
2023-03-06T15:16:08.752Z,-1.20
2023-03-06T15:18:39.325Z,-1.00
2023-03-06T15:21:18.865Z,-0.90
2023-03-06T15:23:48.774Z,-1.00
2023-03-06T15:26:31.971Z,-1.30
2023-03-06T15:29:11.541Z,-1.30
2023-03-06T15:31:43.795Z,-1.40
2023-03-06T15:34:11.125Z,-1.50
2023-03-06T15:36:58.046Z,-1.50
2023-03-06T15:39:32.930Z,-1.50
2023-03-06T15:42:20.422Z,-1.40
2023-03-06T15:45:03.113Z,-1.40
2023-03-06T15:47:30.565Z,-1.40
2023-03-06T15:49:57.892Z,-1.40
2023-03-06T15:52:25.068Z,-1.50
2023-03-06T15:54:52.333Z,-1.40
2023-03-06T15:57:29.511Z,-1.50
2023-03-06T15:59:58.151Z,-1.50
2023-03-06T16:02:25.565Z,-1.50
2023-03-06T16:04:53.706Z,-1.50
2023-03-06T16:07:21.416Z,-1.50
2023-03-06T16:09:48.913Z,-1.60
2023-03-06T16:12:19.227Z,-1.70
2023-03-06T16:14:50.090Z,-2.00
2023-03-06T16:17:17.977Z,-2.20
2023-03-06T16:19:45.610Z,-2.10
2023-03-06T16:22:13.100Z,-2.20
2023-03-06T16:24:40.896Z,-2.30
2023-03-06T16:27:18.779Z,-2.20
2023-03-06T16:29:45.956Z,-2.20
2023-03-06T16:32:13.237Z,-2.40
2023-03-06T16:34:40.410Z,-2.60
2023-03-06T16:37:11.588Z,-2.60
2023-03-06T16:39:38.906Z,-2.70
2023-03-06T16:42:06.442Z,-2.70
2023-03-06T16:44:33.916Z,-2.70
2023-03-06T16:47:01.364Z,-2.70
2023-03-06T16:49:28.549Z,-2.80
2023-03-06T16:51:56.410Z,-2.90
2023-03-06T16:54:26.402Z,-3.00
2023-03-06T16:56:53.544Z,-3.10
2023-03-06T16:59:20.838Z,-3.00
2023-03-06T17:01:48.350Z,-3.00
2023-03-06T17:04:15.877Z,-3.20
2023-03-06T17:06:43.338Z,-3.20
2023-03-06T17:09:11.278Z,-3.20
2023-03-06T17:11:43.475Z,-3.20
2023-03-06T17:14:10.564Z,-3.30
2023-03-06T17:16:40.461Z,-3.20
2023-03-06T17:19:09.969Z,-3.30
2023-03-06T17:21:38.658Z,-3.40
2023-03-06T17:24:06.873Z,-3.50
2023-03-06T17:26:34.423Z,-3.50
2023-03-06T17:29:02.945Z,-3.40
2023-03-06T17:31:31.211Z,-3.40
2023-03-06T17:34:02.389Z,-3.40
2023-03-06T17:36:31.456Z,-3.50
2023-03-06T17:39:00.556Z,-3.40
2023-03-06T17:41:28.449Z,-3.40
2023-03-06T17:43:57.988Z,-3.50
2023-03-06T17:46:26.245Z,-3.50
2023-03-06T17:48:55.059Z,-3.50
2023-03-06T17:51:22.444Z,-3.50
2023-03-06T17:53:49.960Z,-3.50
2023-03-06T17:56:17.460Z,-3.60
2023-03-06T17:58:45.914Z,-3.60
2023-03-06T18:01:19.585Z,-3.60
2023-03-06T18:03:50.171Z,-3.60
2023-03-06T18:06:19.155Z,-3.60
2023-03-06T18:08:46.760Z,-3.60
2023-03-06T18:11:15.048Z,-3.70
2023-03-06T18:13:44.479Z,-3.60
2023-03-06T18:16:14.596Z,-3.60
2023-03-06T18:18:42.070Z,-3.60
2023-03-06T18:21:14.972Z,-3.60
2023-03-06T18:23:42.809Z,-3.60
2023-03-06T18:26:17.544Z,-3.50
2023-03-06T18:28:47.614Z,-3.40
2023-03-06T18:31:34.462Z,-3.60
2023-03-06T18:34:13.903Z,-3.90
2023-03-06T18:36:43.673Z,-3.90
2023-03-06T18:39:13.401Z,-3.90
2023-03-06T18:41:41.544Z,-3.90
2023-03-06T18:44:09.302Z,-4.00
2023-03-06T18:46:38.006Z,-4.00
2023-03-06T18:49:06.155Z,-4.00
2023-03-06T18:51:33.706Z,-4.10
2023-03-06T18:54:02.544Z,-4.10
2023-03-06T18:56:30.351Z,-4.20
2023-03-06T18:59:04.937Z,-4.10
2023-03-06T19:01:33.216Z,-4.20
2023-03-06T19:04:02.405Z,-4.20
2023-03-06T19:06:30.267Z,-4.20
2023-03-06T19:09:02.432Z,-4.20
2023-03-06T19:11:29.861Z,-4.40
2023-03-06T19:13:56.991Z,-4.60
2023-03-06T19:16:27.221Z,-4.60
2023-03-06T19:18:58.134Z,-4.80
2023-03-06T19:21:27.686Z,-4.70
2023-03-06T19:23:56.290Z,-4.90
2023-03-06T19:26:23.890Z,-4.90
2023-03-06T19:28:52.642Z,-5.10
2023-03-06T19:31:27.150Z,-5.00
2023-03-06T19:33:57.027Z,-5.20
2023-03-06T19:36:33.640Z,-5.40
2023-03-06T19:39:06.609Z,-5.50
2023-03-06T19:41:34.792Z,-5.70
2023-03-06T19:44:03.535Z,-5.80
2023-03-06T19:46:31.988Z,-5.90
2023-03-06T19:49:03.662Z,-5.90
2023-03-06T19:51:31.018Z,-5.90
2023-03-06T19:53:58.338Z,-5.80
2023-03-06T19:56:29.272Z,-5.80
2023-03-06T19:58:57.079Z,-6.10
2023-03-06T20:01:27.159Z,-6.00
2023-03-06T20:03:59.351Z,-5.90
2023-03-06T20:06:30.460Z,-6.00
2023-03-06T20:08:57.938Z,-6.00
2023-03-06T20:11:27.453Z,-6.10
2023-03-06T20:13:54.912Z,-6.20
2023-03-06T20:16:22.021Z,-6.40
2023-03-06T20:18:49.126Z,-6.30
2023-03-06T20:21:16.693Z,-6.30
2023-03-06T20:23:44.051Z,-6.20
2023-03-06T20:26:12.959Z,-6.20
2023-03-06T20:28:41.926Z,-6.30
2023-03-06T20:31:18.576Z,-6.60
2023-03-06T20:33:51.138Z,-6.80
2023-03-06T20:36:22.246Z,-6.90
2023-03-06T20:38:50.365Z,-6.90
2023-03-06T20:41:19.712Z,-7.00
2023-03-06T20:43:47.023Z,-7.20
2023-03-06T20:46:15.251Z,-7.30
2023-03-06T20:48:43.629Z,-7.30
2023-03-06T20:51:22.497Z,-7.30
2023-03-06T20:53:51.505Z,-7.30
2023-03-06T20:56:20.797Z,-7.60
2023-03-06T20:58:47.963Z,-7.80
2023-03-06T21:01:23.428Z,-7.70
2023-03-06T21:03:51.714Z,-7.80
2023-03-06T21:06:20.155Z,-8.00
2023-03-06T21:08:48.051Z,-8.10
2023-03-06T21:11:15.912Z,-8.30
2023-03-06T21:13:43.083Z,-8.20
2023-03-06T21:16:12.471Z,-8.20
2023-03-06T21:18:40.220Z,-8.30
2023-03-06T21:21:13.152Z,-8.40
2023-03-06T21:23:40.692Z,-8.30
2023-03-06T21:26:07.986Z,-8.30
2023-03-06T21:28:35.265Z,-8.50
2023-03-06T21:31:03.042Z,-8.60
2023-03-06T21:33:30.161Z,-8.60
2023-03-06T21:35:57.294Z,-8.60
2023-03-06T21:38:24.984Z,-8.70
2023-03-06T21:40:52.843Z,-8.70
2023-03-06T21:43:20.092Z,-8.70
2023-03-06T21:45:48.696Z,-8.80
2023-03-06T21:48:16.425Z,-8.90
2023-03-06T21:50:43.644Z,-9.00
2023-03-06T21:53:11.188Z,-9.00
2023-03-06T21:55:41.187Z,-9.10
2023-03-06T21:58:08.524Z,-9.10
2023-03-06T22:00:36.631Z,-9.20
2023-03-06T22:03:04.850Z,-9.20
2023-03-06T22:05:32.334Z,-9.10
2023-03-06T22:07:59.851Z,-9.10
2023-03-06T22:10:26.964Z,-9.10
2023-03-06T22:12:54.354Z,-9.10
2023-03-06T22:15:21.975Z,-9.20
2023-03-06T22:17:49.774Z,-9.20
2023-03-06T22:20:17.106Z,-9.30
2023-03-06T22:22:44.623Z,-9.40
2023-03-06T22:25:12.099Z,-9.40
2023-03-06T22:27:39.158Z,-9.40
2023-03-06T22:30:07.341Z,-9.50
2023-03-06T22:32:34.500Z,-9.60
2023-03-06T22:35:01.979Z,-9.80
2023-03-06T22:37:29.373Z,-9.80
2023-03-06T22:39:56.472Z,-9.80
2023-03-06T22:42:23.817Z,-9.80
2023-03-06T22:44:50.953Z,-9.80
2023-03-06T22:47:18.296Z,-9.90
2023-03-06T22:49:45.426Z,-9.90
2023-03-06T22:52:15.122Z,-9.90
2023-03-06T22:54:42.373Z,-10.00
2023-03-06T22:57:09.704Z,-9.90
2023-03-06T22:59:37.117Z,-9.90
2023-03-06T23:02:04.498Z,-10.00
2023-03-06T23:04:31.677Z,-10.10
2023-03-06T23:06:58.806Z,-10.10
2023-03-06T23:09:26.280Z,-10.10
2023-03-06T23:11:53.713Z,-10.00
2023-03-06T23:14:21.028Z,-10.20
2023-03-06T23:16:48.385Z,-10.30
2023-03-06T23:19:15.831Z,-10.30
2023-03-06T23:21:43.061Z,-10.20
2023-03-06T23:24:10.538Z,-10.20
2023-03-06T23:26:38.164Z,-10.20
2023-03-06T23:29:05.592Z,-10.40
2023-03-06T23:31:32.648Z,-10.50
2023-03-06T23:34:02.221Z,-10.50
2023-03-06T23:36:30.369Z,-10.40
2023-03-06T23:38:58.134Z,-10.40
2023-03-06T23:41:26.117Z,-10.40
2023-03-06T23:43:55.171Z,-10.40
2023-03-06T23:46:22.820Z,-10.30
2023-03-06T23:48:50.342Z,-10.30
2023-03-06T23:51:20.093Z,-10.40
2023-03-06T23:53:52.859Z,-10.50
2023-03-06T23:56:19.993Z,-10.50
2023-03-06T23:58:47.231Z,-10.50
